sensor_id;sensor_type;location;lat;lon;timestamp;pressure;altitude;pressure_sealevel;temperature
13497;BMP180;6820;49.374;8.452;2023-04-24T00:01:32;99456.06;;;19.85
13497;BMP180;6820;49.374;8.452;2023-04-24T00:05:35;99460.38;;;19.87
13497;BMP180;6820;49.374;8.452;2023-04-24T00:09:37;99445.88;;;19.92
13497;BMP180;6820;49.374;8.452;2023-04-24T00:13:38;99444.97;;;19.89
13497;BMP180;6820;49.374;8.452;2023-04-24T00:17:41;99449.25;;;19.87
13497;BMP180;6820;49.374;8.452;2023-04-24T00:21:42;99445.84;;;19.89
13497;BMP180;6820;49.374;8.452;2023-04-24T00:25:44;99439.03;;;19.94
13497;BMP180;6820;49.374;8.452;2023-04-24T00:29:46;99445.94;;;20.00
13497;BMP180;6820;49.374;8.452;2023-04-24T00:33:47;99436.50;;;20.00
13497;BMP180;6820;49.374;8.452;2023-04-24T00:37:49;99429.59;;;19.95
13497;BMP180;6820;49.374;8.452;2023-04-24T00:41:51;99428.63;;;19.83
13497;BMP180;6820;49.374;8.452;2023-04-24T00:45:54;99426.88;;;19.80
13497;BMP180;6820;49.374;8.452;2023-04-24T00:49:56;99432.78;;;19.73
13497;BMP180;6820;49.374;8.452;2023-04-24T00:53:58;99446.38;;;19.63
13497;BMP180;6820;49.374;8.452;2023-04-24T00:57:59;99443.75;;;19.59
13497;BMP180;6820;49.374;8.452;2023-04-24T01:02:01;99447.19;;;19.58
13497;BMP180;6820;49.374;8.452;2023-04-24T01:06:03;99448.06;;;19.60
13497;BMP180;6820;49.374;8.452;2023-04-24T01:10:07;99448.88;;;19.54
13497;BMP180;6820;49.374;8.452;2023-04-24T01:14:09;99440.34;;;19.58
13497;BMP180;6820;49.374;8.452;2023-04-24T01:18:11;99439.50;;;19.61
13497;BMP180;6820;49.374;8.452;2023-04-24T01:22:14;99438.59;;;19.54
13497;BMP180;6820;49.374;8.452;2023-04-24T01:26:17;99440.31;;;19.55
13497;BMP180;6820;49.374;8.452;2023-04-24T01:30:18;99433.47;;;19.54
13497;BMP180;6820;49.374;8.452;2023-04-24T01:34:20;99423.94;;;19.46
13497;BMP180;6820;49.374;8.452;2023-04-24T01:38:22;99431.66;;;19.46
13497;BMP180;6820;49.374;8.452;2023-04-24T01:42:24;99421.38;;;19.46
13497;BMP180;6820;49.374;8.452;2023-04-24T01:46:25;99431.63;;;19.45
13497;BMP180;6820;49.374;8.452;2023-04-24T01:50:27;99416.22;;;19.48
13497;BMP180;6820;49.374;8.452;2023-04-24T01:54:29;99414.53;;;19.48
13497;BMP180;6820;49.374;8.452;2023-04-24T01:58:31;99409.41;;;19.50
13497;BMP180;6820;49.374;8.452;2023-04-24T02:02:33;99415.31;;;19.43
13497;BMP180;6820;49.374;8.452;2023-04-24T02:06:36;99408.50;;;19.43
13497;BMP180;6820;49.374;8.452;2023-04-24T02:10:37;99415.31;;;19.43
13497;BMP180;6820;49.374;8.452;2023-04-24T02:14:39;99412.78;;;19.44
13497;BMP180;6820;49.374;8.452;2023-04-24T02:18:41;99411.94;;;19.44
13497;BMP180;6820;49.374;8.452;2023-04-24T02:22:42;99405.03;;;19.43
13497;BMP180;6820;49.374;8.452;2023-04-24T02:26:44;99411.00;;;19.39
13497;BMP180;6820;49.374;8.452;2023-04-24T02:30:46;99407.53;;;19.34
13497;BMP180;6820;49.374;8.452;2023-04-24T02:34:47;99414.38;;;19.35
13497;BMP180;6820;49.374;8.452;2023-04-24T02:38:49;99418.75;;;19.42
13497;BMP180;6820;49.374;8.452;2023-04-24T02:42:51;99428.25;;;19.50
13497;BMP180;6820;49.374;8.452;2023-04-24T02:46:52;99427.47;;;19.54
13497;BMP180;6820;49.374;8.452;2023-04-24T02:50:54;99466.03;;;19.58
13497;BMP180;6820;49.374;8.452;2023-04-24T02:54:55;99488.94;;;19.39
13497;BMP180;6820;49.374;8.452;2023-04-24T02:58:57;99500.53;;;19.09
13497;BMP180;6820;49.374;8.452;2023-04-24T03:03:01;99496.78;;;18.88
13497;BMP180;6820;49.374;8.452;2023-04-24T03:07:03;99503.44;;;18.76
13497;BMP180;6820;49.374;8.452;2023-04-24T03:11:05;99496.34;;;18.59
13497;BMP180;6820;49.374;8.452;2023-04-24T03:15:07;99493.69;;;18.53
13497;BMP180;6820;49.374;8.452;2023-04-24T03:19:11;99487.53;;;18.43
13497;BMP180;6820;49.374;8.452;2023-04-24T03:23:23;99480.56;;;18.35
13497;BMP180;6820;49.374;8.452;2023-04-24T03:27:24;99474.78;;;18.48
13497;BMP180;6820;49.374;8.452;2023-04-24T03:31:33;99475.00;;;18.61
13497;BMP180;6820;49.374;8.452;2023-04-24T03:35:35;99476.03;;;18.73
13497;BMP180;6820;49.374;8.452;2023-04-24T03:39:42;99480.25;;;18.70
13497;BMP180;6820;49.374;8.452;2023-04-24T03:43:45;99497.31;;;18.68
13497;BMP180;6820;49.374;8.452;2023-04-24T03:47:47;99497.16;;;18.56
13497;BMP180;6820;49.374;8.452;2023-04-24T03:51:49;99506.53;;;18.54
13497;BMP180;6820;49.374;8.452;2023-04-24T03:55:56;99514.91;;;18.44
13497;BMP180;6820;49.374;8.452;2023-04-24T03:59:58;99531.78;;;18.30
13497;BMP180;6820;49.374;8.452;2023-04-24T04:04:00;99523.97;;;18.23
13497;BMP180;6820;49.374;8.452;2023-04-24T04:08:04;99532.34;;;18.15
13497;BMP180;6820;49.374;8.452;2023-04-24T04:12:07;99539.97;;;18.10
13497;BMP180;6820;49.374;8.452;2023-04-24T04:16:09;99542.41;;;18.03
13497;BMP180;6820;49.374;8.452;2023-04-24T04:20:11;99546.53;;;17.98
13497;BMP180;6820;49.374;8.452;2023-04-24T04:24:14;99565.22;;;17.93
13497;BMP180;6820;49.374;8.452;2023-04-24T04:28:19;99571.91;;;17.85
13497;BMP180;6820;49.374;8.452;2023-04-24T04:32:22;99577.78;;;17.78
13497;BMP180;6820;49.374;8.452;2023-04-24T04:36:24;99578.38;;;17.67
13497;BMP180;6820;49.374;8.452;2023-04-24T04:40:34;99586.91;;;17.67
13497;BMP180;6820;49.374;8.452;2023-04-24T04:44:39;99587.00;;;17.70
13497;BMP180;6820;49.374;8.452;2023-04-24T04:48:43;99583.59;;;17.71
13497;BMP180;6820;49.374;8.452;2023-04-24T04:52:45;99596.53;;;17.77
13497;BMP180;6820;49.374;8.452;2023-04-24T04:56:59;99596.56;;;17.80
13497;BMP180;6820;49.374;8.452;2023-04-24T05:01:05;99605.16;;;17.82
13497;BMP180;6820;49.374;8.452;2023-04-24T05:05:13;99611.25;;;17.87
13497;BMP180;6820;49.374;8.452;2023-04-24T05:09:14;99617.34;;;17.92
13497;BMP180;6820;49.374;8.452;2023-04-24T05:13:22;99627.72;;;17.99
13497;BMP180;6820;49.374;8.452;2023-04-24T05:17:43;99585.28;;;18.10
13497;BMP180;6820;49.374;8.452;2023-04-24T05:21:47;99622.97;;;18.15
13497;BMP180;6820;49.374;8.452;2023-04-24T05:25:49;99637.47;;;18.13
13497;BMP180;6820;49.374;8.452;2023-04-24T05:29:51;99633.09;;;18.08
13497;BMP180;6820;49.374;8.452;2023-04-24T05:33:52;99640.63;;;18.02
13497;BMP180;6820;49.374;8.452;2023-04-24T05:37:55;99634.09;;;18.17
13497;BMP180;6820;49.374;8.452;2023-04-24T05:41:56;99649.16;;;18.43
13497;BMP180;6820;49.374;8.452;2023-04-24T05:45:59;99644.97;;;18.48
13497;BMP180;6820;49.374;8.452;2023-04-24T05:50:01;99641.91;;;18.68
13497;BMP180;6820;49.374;8.452;2023-04-24T05:54:03;99652.91;;;18.63
13497;BMP180;6820;49.374;8.452;2023-04-24T05:58:05;99662.28;;;18.58
13497;BMP180;6820;49.374;8.452;2023-04-24T06:02:09;99660.66;;;18.64
13497;BMP180;6820;49.374;8.452;2023-04-24T06:06:11;99666.44;;;18.53
13497;BMP180;6820;49.374;8.452;2023-04-24T06:10:12;99676.66;;;18.52
13497;BMP180;6820;49.374;8.452;2023-04-24T06:14:17;99675.97;;;18.60
13497;BMP180;6820;49.374;8.452;2023-04-24T06:18:47;99685.53;;;18.67
13497;BMP180;6820;49.374;8.452;2023-04-24T06:22:50;99682.09;;;18.68
13497;BMP180;6820;49.374;8.452;2023-04-24T06:26:51;99687.19;;;18.65
13497;BMP180;6820;49.374;8.452;2023-04-24T06:30:53;99693.16;;;18.64
13497;BMP180;6820;49.374;8.452;2023-04-24T06:34:54;99692.56;;;18.78
13497;BMP180;6820;49.374;8.452;2023-04-24T06:38:58;99690.78;;;18.74
13497;BMP180;6820;49.374;8.452;2023-04-24T06:43:00;99712.59;;;18.50
13497;BMP180;6820;49.374;8.452;2023-04-24T06:47:04;99719.53;;;18.13
13497;BMP180;6820;49.374;8.452;2023-04-24T06:51:06;99725.44;;;17.74
13497;BMP180;6820;49.374;8.452;2023-04-24T06:55:08;99707.00;;;17.52
13497;BMP180;6820;49.374;8.452;2023-04-24T06:59:09;99711.94;;;17.45
13497;BMP180;6820;49.374;8.452;2023-04-24T07:03:11;99710.25;;;17.44
13497;BMP180;6820;49.374;8.452;2023-04-24T07:07:13;99714.63;;;17.49
13497;BMP180;6820;49.374;8.452;2023-04-24T07:11:15;99717.81;;;17.77
13497;BMP180;6820;49.374;8.452;2023-04-24T07:15:17;99719.78;;;17.87
13497;BMP180;6820;49.374;8.452;2023-04-24T07:19:19;99726.72;;;17.91
13497;BMP180;6820;49.374;8.452;2023-04-24T07:23:20;99729.03;;;18.19
13497;BMP180;6820;49.374;8.452;2023-04-24T07:27:25;99719.44;;;18.51
13497;BMP180;6820;49.374;8.452;2023-04-24T07:31:26;99721.34;;;18.62
13497;BMP180;6820;49.374;8.452;2023-04-24T07:35:28;99719.28;;;18.42
13497;BMP180;6820;49.374;8.452;2023-04-24T07:39:30;99726.56;;;18.23
13497;BMP180;6820;49.374;8.452;2023-04-24T07:43:32;99743.34;;;18.09
13497;BMP180;6820;49.374;8.452;2023-04-24T07:47:33;99744.16;;;18.07
13497;BMP180;6820;49.374;8.452;2023-04-24T07:51:35;99731.47;;;18.13
13497;BMP180;6820;49.374;8.452;2023-04-24T07:55:39;99747.22;;;18.30
13497;BMP180;6820;49.374;8.452;2023-04-24T07:59:41;99735.56;;;18.46
13497;BMP180;6820;49.374;8.452;2023-04-24T08:03:43;99744.94;;;18.44
13497;BMP180;6820;49.374;8.452;2023-04-24T08:07:46;99740.84;;;18.53
13497;BMP180;6820;49.374;8.452;2023-04-24T08:11:50;99741.06;;;18.65
13497;BMP180;6820;49.374;8.452;2023-04-24T08:15:51;99749.41;;;18.97
13497;BMP180;6820;49.374;8.452;2023-04-24T08:19:53;99769.69;;;19.29
13497;BMP180;6820;49.374;8.452;2023-04-24T08:24:02;99762.97;;;19.37
13497;BMP180;6820;49.374;8.452;2023-04-24T08:28:08;99780.19;;;19.43
13497;BMP180;6820;49.374;8.452;2023-04-24T08:32:10;99777.53;;;19.37
13497;BMP180;6820;49.374;8.452;2023-04-24T08:36:12;99798.50;;;19.12
13497;BMP180;6820;49.374;8.452;2023-04-24T08:40:15;99793.81;;;18.91
13497;BMP180;6820;49.374;8.452;2023-04-24T08:44:17;99799.06;;;18.96
13497;BMP180;6820;49.374;8.452;2023-04-24T08:48:20;99801.50;;;19.37
13497;BMP180;6820;49.374;8.452;2023-04-24T08:52:33;99809.34;;;19.94
13497;BMP180;6820;49.374;8.452;2023-04-24T08:56:36;99815.75;;;20.21
13497;BMP180;6820;49.374;8.452;2023-04-24T09:00:40;99819.72;;;20.00
13497;BMP180;6820;49.374;8.452;2023-04-24T09:04:48;99825.22;;;20.25
13497;BMP180;6820;49.374;8.452;2023-04-24T09:08:52;99821.03;;;20.32
13497;BMP180;6820;49.374;8.452;2023-04-24T09:12:56;99824.06;;;20.04
13497;BMP180;6820;49.374;8.452;2023-04-24T09:17:00;99837.84;;;19.58
13497;BMP180;6820;49.374;8.452;2023-04-24T09:21:09;99833.75;;;19.21
13497;BMP180;6820;49.374;8.452;2023-04-24T09:25:11;99831.94;;;19.15
13497;BMP180;6820;49.374;8.452;2023-04-24T09:29:17;99835.56;;;19.26
13497;BMP180;6820;49.374;8.452;2023-04-24T09:33:19;99839.38;;;19.47
13497;BMP180;6820;49.374;8.452;2023-04-24T09:37:28;99839.13;;;19.81
13497;BMP180;6820;49.374;8.452;2023-04-24T09:41:32;99841.16;;;19.99
13497;BMP180;6820;49.374;8.452;2023-04-24T09:45:38;99850.84;;;20.16
13497;BMP180;6820;49.374;8.452;2023-04-24T09:49:40;99835.28;;;20.71
13497;BMP180;6820;49.374;8.452;2023-04-24T09:53:46;99834.88;;;21.07
13497;BMP180;6820;49.374;8.452;2023-04-24T09:58:01;99850.25;;;20.98
13497;BMP180;6820;49.374;8.452;2023-04-24T10:02:02;99857.75;;;20.80
13497;BMP180;6820;49.374;8.452;2023-04-24T10:06:04;99859.50;;;20.83
13497;BMP180;6820;49.374;8.452;2023-04-24T10:10:11;99867.56;;;20.45
13497;BMP180;6820;49.374;8.452;2023-04-24T10:14:20;99887.53;;;20.07
13497;BMP180;6820;49.374;8.452;2023-04-24T10:18:22;99891.69;;;19.97
13497;BMP180;6820;49.374;8.452;2023-04-24T10:22:25;99907.00;;;19.90
13497;BMP180;6820;49.374;8.452;2023-04-24T10:26:28;99907.00;;;19.90
13497;BMP180;6820;49.374;8.452;2023-04-24T10:30:34;99892.84;;;20.15
13497;BMP180;6820;49.374;8.452;2023-04-24T10:34:39;99909.50;;;20.40
13497;BMP180;6820;49.374;8.452;2023-04-24T10:38:41;99904.63;;;20.56
13497;BMP180;6820;49.374;8.452;2023-04-24T10:42:48;99895.47;;;20.77
13497;BMP180;6820;49.374;8.452;2023-04-24T10:46:53;99897.78;;;21.25
13497;BMP180;6820;49.374;8.452;2023-04-24T10:50:56;99913.03;;;21.07
13497;BMP180;6820;49.374;8.452;2023-04-24T10:55:01;99905.41;;;20.53
13497;BMP180;6820;49.374;8.452;2023-04-24T10:59:07;99907.97;;;20.52
13497;BMP180;6820;49.374;8.452;2023-04-24T11:03:23;99909.94;;;20.66
13497;BMP180;6820;49.374;8.452;2023-04-24T11:07:26;99922.69;;;20.60
13497;BMP180;6820;49.374;8.452;2023-04-24T11:11:30;99927.09;;;20.66
13497;BMP180;6820;49.374;8.452;2023-04-24T11:15:32;99927.69;;;21.13
13497;BMP180;6820;49.374;8.452;2023-04-24T11:19:34;99927.75;;;21.19
13497;BMP180;6820;49.374;8.452;2023-04-24T11:23:38;99925.16;;;21.16
13497;BMP180;6820;49.374;8.452;2023-04-24T11:27:44;99929.56;;;21.26
13497;BMP180;6820;49.374;8.452;2023-04-24T11:31:47;99920.44;;;21.50
13497;BMP180;6820;49.374;8.452;2023-04-24T11:35:52;99910.56;;;21.96
13497;BMP180;6820;49.374;8.452;2023-04-24T11:39:56;99910.88;;;22.32
13497;BMP180;6820;49.374;8.452;2023-04-24T11:43:58;99922.28;;;22.64
13497;BMP180;6820;49.374;8.452;2023-04-24T11:48:03;99916.44;;;22.93
13497;BMP180;6820;49.374;8.452;2023-04-24T11:52:05;99913.66;;;22.61
13497;BMP180;6820;49.374;8.452;2023-04-24T11:56:08;99946.78;;;22.06
13497;BMP180;6820;49.374;8.452;2023-04-24T12:00:17;99946.97;;;21.43
13497;BMP180;6820;49.374;8.452;2023-04-24T12:04:20;99944.25;;;21.31
13497;BMP180;6820;49.374;8.452;2023-04-24T12:08:28;99943.00;;;21.70
13497;BMP180;6820;49.374;8.452;2023-04-24T12:12:30;99932.88;;;21.89
13497;BMP180;6820;49.374;8.452;2023-04-24T12:16:32;99934.06;;;22.25
13497;BMP180;6820;49.374;8.452;2023-04-24T12:20:35;99928.63;;;21.98
13497;BMP180;6820;49.374;8.452;2023-04-24T12:24:59;99930.34;;;21.98
13497;BMP180;6820;49.374;8.452;2023-04-24T12:29:03;99937.03;;;21.75
13497;BMP180;6820;49.374;8.452;2023-04-24T12:33:04;99924.34;;;21.98
13497;BMP180;6820;49.374;8.452;2023-04-24T12:37:11;99926.22;;;22.15
13497;BMP180;6820;49.374;8.452;2023-04-24T12:41:13;99934.97;;;22.29
13497;BMP180;6820;49.374;8.452;2023-04-24T12:45:17;99928.88;;;22.25
13497;BMP180;6820;49.374;8.452;2023-04-24T12:49:18;99921.31;;;22.46
13497;BMP180;6820;49.374;8.452;2023-04-24T12:53:20;99906.97;;;22.96
13497;BMP180;6820;49.374;8.452;2023-04-24T12:57:23;99903.59;;;23.09
13497;BMP180;6820;49.374;8.452;2023-04-24T13:01:26;99899.34;;;23.29
13497;BMP180;6820;49.374;8.452;2023-04-24T13:05:28;99923.38;;;23.01
13497;BMP180;6820;49.374;8.452;2023-04-24T13:09:29;99903.47;;;22.84
13497;BMP180;6820;49.374;8.452;2023-04-24T13:13:31;99908.53;;;22.66
13497;BMP180;6820;49.374;8.452;2023-04-24T13:17:32;99915.38;;;22.61
13497;BMP180;6820;49.374;8.452;2023-04-24T13:21:34;99922.22;;;22.57
13497;BMP180;6820;49.374;8.452;2023-04-24T13:25:36;99913.78;;;22.81
13497;BMP180;6820;49.374;8.452;2023-04-24T13:29:38;99913.00;;;22.92
13497;BMP180;6820;49.374;8.452;2023-04-24T13:33:40;99904.38;;;22.91
13497;BMP180;6820;49.374;8.452;2023-04-24T13:37:42;99919.91;;;22.99
13497;BMP180;6820;49.374;8.452;2023-04-24T13:41:44;99911.25;;;22.89
13497;BMP180;6820;49.374;8.452;2023-04-24T13:45:46;99914.41;;;22.43
13497;BMP180;6820;49.374;8.452;2023-04-24T13:49:48;99925.41;;;22.20
13497;BMP180;6820;49.374;8.452;2023-04-24T13:53:49;99926.91;;;21.95
13497;BMP180;6820;49.374;8.452;2023-04-24T13:57:51;99929.31;;;21.80
13497;BMP180;6820;49.374;8.452;2023-04-24T14:01:53;99923.22;;;21.68
13497;BMP180;6820;49.374;8.452;2023-04-24T14:05:55;99917.91;;;21.54
13497;BMP180;6820;49.374;8.452;2023-04-24T14:09:57;99917.09;;;21.61
13497;BMP180;6820;49.374;8.452;2023-04-24T14:13:59;99923.06;;;21.54
13497;BMP180;6820;49.374;8.452;2023-04-24T14:18:00;99922.88;;;21.37
13497;BMP180;6820;49.374;8.452;2023-04-24T14:22:04;99916.00;;;21.37
13497;BMP180;6820;49.374;8.452;2023-04-24T14:26:05;99918.72;;;21.49
13497;BMP180;6820;49.374;8.452;2023-04-24T14:30:07;99909.97;;;21.37
13497;BMP180;6820;49.374;8.452;2023-04-24T14:34:09;99919.22;;;21.20
13497;BMP180;6820;49.374;8.452;2023-04-24T14:38:11;99934.31;;;20.92
13497;BMP180;6820;49.374;8.452;2023-04-24T14:42:13;99950.47;;;20.80
13497;BMP180;6820;49.374;8.452;2023-04-24T14:46:15;99945.16;;;20.70
13497;BMP180;6820;49.374;8.452;2023-04-24T14:50:17;99947.06;;;21.49
13497;BMP180;6820;49.374;8.452;2023-04-24T14:54:19;99946.66;;;21.93
13497;BMP180;6820;49.374;8.452;2023-04-24T14:58:24;99946.88;;;22.13
13497;BMP180;6820;49.374;8.452;2023-04-24T15:02:25;99940.00;;;22.17
13497;BMP180;6820;49.374;8.452;2023-04-24T15:06:27;99935.66;;;22.11
13497;BMP180;6820;49.374;8.452;2023-04-24T15:10:29;99939.09;;;22.09
13497;BMP180;6820;49.374;8.452;2023-04-24T15:14:31;99936.47;;;22.04
13497;BMP180;6820;49.374;8.452;2023-04-24T15:18:32;99940.81;;;22.08
13497;BMP180;6820;49.374;8.452;2023-04-24T15:22:34;99943.28;;;21.99
13497;BMP180;6820;49.374;8.452;2023-04-24T15:26:36;99953.28;;;21.67
13497;BMP180;6820;49.374;8.452;2023-04-24T15:30:37;99962.38;;;21.36
13497;BMP180;6820;49.374;8.452;2023-04-24T15:34:39;99965.50;;;21.12
13497;BMP180;6820;49.374;8.452;2023-04-24T15:38:41;99959.31;;;21.00
13497;BMP180;6820;49.374;8.452;2023-04-24T15:42:44;99958.47;;;21.01
13497;BMP180;6820;49.374;8.452;2023-04-24T15:46:46;99970.44;;;20.96
13497;BMP180;6820;49.374;8.452;2023-04-24T15:50:48;99959.31;;;20.99
13497;BMP180;6820;49.374;8.452;2023-04-24T15:54:50;99957.88;;;21.20
13497;BMP180;6820;49.374;8.452;2023-04-24T15:58:52;99952.09;;;21.40
13497;BMP180;6820;49.374;8.452;2023-04-24T16:02:53;99945.44;;;21.57
13497;BMP180;6820;49.374;8.452;2023-04-24T16:06:55;99937.97;;;21.85
13497;BMP180;6820;49.374;8.452;2023-04-24T16:10:58;99943.28;;;21.99
13497;BMP180;6820;49.374;8.452;2023-04-24T16:15:00;99925.72;;;22.63
13497;BMP180;6820;49.374;8.452;2023-04-24T16:19:01;99919.75;;;22.74
13497;BMP180;6820;49.374;8.452;2023-04-24T16:23:03;99937.47;;;22.23
13497;BMP180;6820;49.374;8.452;2023-04-24T16:27:04;99930.41;;;22.04
13497;BMP180;6820;49.374;8.452;2023-04-24T16:31:06;99929.91;;;22.45
13497;BMP180;6820;49.374;8.452;2023-04-24T16:35:08;99929.09;;;22.53
13497;BMP180;6820;49.374;8.452;2023-04-24T16:39:09;99928.06;;;22.28
13497;BMP180;6820;49.374;8.452;2023-04-24T16:43:11;99931.31;;;22.07
13497;BMP180;6820;49.374;8.452;2023-04-24T16:47:13;99927.81;;;22.04
13497;BMP180;6820;49.374;8.452;2023-04-24T16:51:15;99936.28;;;21.88
13497;BMP180;6820;49.374;8.452;2023-04-24T16:55:16;99931.81;;;21.68
13497;BMP180;6820;49.374;8.452;2023-04-24T16:59:18;99938.41;;;21.45
13497;BMP180;6820;49.374;8.452;2023-04-24T17:03:20;99954.50;;;21.25
13497;BMP180;6820;49.374;8.452;2023-04-24T17:07:22;99960.38;;;21.14
13497;BMP180;6820;49.374;8.452;2023-04-24T17:11:24;99959.44;;;21.09
13497;BMP180;6820;49.374;8.452;2023-04-24T17:15:25;99948.19;;;21.01
13497;BMP180;6820;49.374;8.452;2023-04-24T17:19:27;99951.47;;;20.91
13497;BMP180;6820;49.374;8.452;2023-04-24T17:23:29;99958.22;;;20.83
13497;BMP180;6820;49.374;8.452;2023-04-24T17:27:31;99957.34;;;20.81
13497;BMP180;6820;49.374;8.452;2023-04-24T17:31:33;99956.44;;;20.77
13497;BMP180;6820;49.374;8.452;2023-04-24T17:35:35;99954.56;;;20.68
13497;BMP180;6820;49.374;8.452;2023-04-24T17:39:36;99951.84;;;20.56
13497;BMP180;6820;49.374;8.452;2023-04-24T17:43:39;99955.13;;;20.49
13497;BMP180;6820;49.374;8.452;2023-04-24T17:47:40;99954.13;;;20.42
13497;BMP180;6820;49.374;8.452;2023-04-24T17:51:42;99956.72;;;20.42
13497;BMP180;6820;49.374;8.452;2023-04-24T17:55:44;99953.25;;;20.40
13497;BMP180;6820;49.374;8.452;2023-04-24T17:59:49;99956.50;;;20.27
13497;BMP180;6820;49.374;8.452;2023-04-24T18:03:51;99953.66;;;20.12
13497;BMP180;6820;49.374;8.452;2023-04-24T18:07:53;99953.59;;;20.08
13497;BMP180;6820;49.374;8.452;2023-04-24T18:11:55;99962.09;;;20.04
13497;BMP180;6820;49.374;8.452;2023-04-24T18:15:58;99973.00;;;19.89
13497;BMP180;6820;49.374;8.452;2023-04-24T18:19:59;99967.47;;;19.72
13497;BMP180;6820;49.374;8.452;2023-04-24T18:24:01;99963.94;;;19.67
13497;BMP180;6820;49.374;8.452;2023-04-24T18:28:02;99969.81;;;19.58
13497;BMP180;6820;49.374;8.452;2023-04-24T18:32:04;99979.22;;;19.56
13497;BMP180;6820;49.374;8.452;2023-04-24T18:36:06;99986.03;;;19.54
13497;BMP180;6820;49.374;8.452;2023-04-24T18:40:08;99990.16;;;19.48
13497;BMP180;6820;49.374;8.452;2023-04-24T18:44:10;99997.84;;;19.47
13497;BMP180;6820;49.374;8.452;2023-04-24T18:48:12;99990.91;;;19.43
13497;BMP180;6820;49.374;8.452;2023-04-24T18:52:13;100003.69;;;19.38
13497;BMP180;6820;49.374;8.452;2023-04-24T18:56:15;99998.50;;;19.35
13497;BMP180;6820;49.374;8.452;2023-04-24T19:00:17;100001.16;;;19.41
13497;BMP180;6820;49.374;8.452;2023-04-24T19:04:19;100007.97;;;19.38
13497;BMP180;6820;49.374;8.452;2023-04-24T19:08:22;100004.44;;;19.33
13497;BMP180;6820;49.374;8.452;2023-04-24T19:12:23;100010.38;;;19.32
13497;BMP180;6820;49.374;8.452;2023-04-24T19:16:25;100018.06;;;19.30
13497;BMP180;6820;49.374;8.452;2023-04-24T19:20:27;100021.28;;;19.21
13497;BMP180;6820;49.374;8.452;2023-04-24T19:24:29;100029.78;;;19.18
13497;BMP180;6820;49.374;8.452;2023-04-24T19:28:33;100039.94;;;19.14
13497;BMP180;6820;49.374;8.452;2023-04-24T19:32:35;100037.97;;;19.01
13497;BMP180;6820;49.374;8.452;2023-04-24T19:36:36;100038.72;;;18.95
13497;BMP180;6820;49.374;8.452;2023-04-24T19:40:38;100040.38;;;18.93
13497;BMP180;6820;49.374;8.452;2023-04-24T19:44:39;100038.59;;;18.91
13497;BMP180;6820;49.374;8.452;2023-04-24T19:48:41;100035.81;;;18.82
13497;BMP180;6820;49.374;8.452;2023-04-24T19:52:43;100037.56;;;18.85
13497;BMP180;6820;49.374;8.452;2023-04-24T19:56:44;100041.94;;;18.89
13497;BMP180;6820;49.374;8.452;2023-04-24T20:00:46;100049.63;;;18.87
13497;BMP180;6820;49.374;8.452;2023-04-24T20:04:48;100043.38;;;18.78
13497;BMP180;6820;49.374;8.452;2023-04-24T20:08:50;100048.41;;;18.73
13497;BMP180;6820;49.374;8.452;2023-04-24T20:12:52;100045.78;;;18.70
13497;BMP180;6820;49.374;8.452;2023-04-24T20:16:53;100052.53;;;18.67
13497;BMP180;6820;49.374;8.452;2023-04-24T20:20:55;100048.13;;;18.61
13497;BMP180;6820;49.374;8.452;2023-04-24T20:25:01;100034.38;;;18.58
13497;BMP180;6820;49.374;8.452;2023-04-24T20:29:03;100036.03;;;18.56
13497;BMP180;6820;49.374;8.452;2023-04-24T20:33:05;100030.91;;;18.58
13497;BMP180;6820;49.374;8.452;2023-04-24T20:37:07;100030.22;;;18.64
13497;BMP180;6820;49.374;8.452;2023-04-24T20:41:08;100025.97;;;18.65
13497;BMP180;6820;49.374;8.452;2023-04-24T20:45:10;100021.75;;;18.68
13497;BMP180;6820;49.374;8.452;2023-04-24T20:49:12;100027.00;;;18.71
13497;BMP180;6820;49.374;8.452;2023-04-24T20:53:14;100023.63;;;18.74
13497;BMP180;6820;49.374;8.452;2023-04-24T20:57:15;100010.88;;;18.78
13497;BMP180;6820;49.374;8.452;2023-04-24T21:01:17;100022.06;;;18.82
13497;BMP180;6820;49.374;8.452;2023-04-24T21:05:19;100008.38;;;18.81
13497;BMP180;6820;49.374;8.452;2023-04-24T21:09:21;100023.03;;;18.87
13497;BMP180;6820;49.374;8.452;2023-04-24T21:13:22;100017.97;;;18.90
13497;BMP180;6820;49.374;8.452;2023-04-24T21:17:24;100011.91;;;18.85
13497;BMP180;6820;49.374;8.452;2023-04-24T21:21:26;100003.22;;;18.80
13497;BMP180;6820;49.374;8.452;2023-04-24T21:25:27;100022.06;;;18.80
13497;BMP180;6820;49.374;8.452;2023-04-24T21:29:31;100021.06;;;18.74
13497;BMP180;6820;49.374;8.452;2023-04-24T21:33:33;100010.78;;;18.74
13497;BMP180;6820;49.374;8.452;2023-04-24T21:37:35;100012.50;;;18.75
13497;BMP180;6820;49.374;8.452;2023-04-24T21:41:38;100009.09;;;18.76
13497;BMP180;6820;49.374;8.452;2023-04-24T21:45:40;100019.34;;;18.74
13497;BMP180;6820;49.374;8.452;2023-04-24T21:49:41;100009.56;;;18.59
13497;BMP180;6820;49.374;8.452;2023-04-24T21:53:43;100002.59;;;18.55
13497;BMP180;6820;49.374;8.452;2023-04-24T21:57:45;99992.28;;;18.52
13497;BMP180;6820;49.374;8.452;2023-04-24T22:01:46;99997.53;;;18.58
13497;BMP180;6820;49.374;8.452;2023-04-24T22:05:48;100001.94;;;18.61
13497;BMP180;6820;49.374;8.452;2023-04-24T22:09:50;100011.03;;;18.48
13497;BMP180;6820;49.374;8.452;2023-04-24T22:13:52;99999.56;;;18.34
13497;BMP180;6820;49.374;8.452;2023-04-24T22:17:54;99984.72;;;18.23
13497;BMP180;6820;49.374;8.452;2023-04-24T22:21:57;99987.47;;;18.29
13497;BMP180;6820;49.374;8.452;2023-04-24T22:25:59;99985.97;;;18.38
13497;BMP180;6820;49.374;8.452;2023-04-24T22:30:01;99986.22;;;18.50
13497;BMP180;6820;49.374;8.452;2023-04-24T22:34:03;99982.97;;;18.55
13497;BMP180;6820;49.374;8.452;2023-04-24T22:38:04;99983.84;;;18.57
13497;BMP180;6820;49.374;8.452;2023-04-24T22:42:06;99975.41;;;18.61
13497;BMP180;6820;49.374;8.452;2023-04-24T22:46:08;99988.25;;;18.61
13497;BMP180;6820;49.374;8.452;2023-04-24T22:50:09;99984.66;;;18.55
13497;BMP180;6820;49.374;8.452;2023-04-24T22:54:11;99982.94;;;18.54
13497;BMP180;6820;49.374;8.452;2023-04-24T22:58:13;99973.50;;;18.53
13497;BMP180;6820;49.374;8.452;2023-04-24T23:02:16;99985.44;;;18.52
13497;BMP180;6820;49.374;8.452;2023-04-24T23:06:17;99985.38;;;18.49
13497;BMP180;6820;49.374;8.452;2023-04-24T23:10:19;99977.69;;;18.49
13497;BMP180;6820;49.374;8.452;2023-04-24T23:14:21;99989.63;;;18.47
13497;BMP180;6820;49.374;8.452;2023-04-24T23:18:25;99983.59;;;18.45
13497;BMP180;6820;49.374;8.452;2023-04-24T23:22:26;99981.88;;;18.46
13497;BMP180;6820;49.374;8.452;2023-04-24T23:26:28;99979.25;;;18.44
13497;BMP180;6820;49.374;8.452;2023-04-24T23:30:29;99976.69;;;18.43
13497;BMP180;6820;49.374;8.452;2023-04-24T23:34:31;99971.41;;;18.37